Time;durP1;ratioP1;P1;durP2;ratioP2;P2;SDS_P1;SDS_P2;PMS_P1;PMS_P2;Temp;Humidity;BMP_temperature;BMP_pressure;BME280_temperature;BME280_humidity;BME280_pressure;Samples;Min_cycle;Max_cycle;Signal;HPM_P1;HPM_P2
2022/01/05 00:01:35;;;;;;;;;;;;;;;2.54;77.61;99988.34;5023086;28;19921;-74
2022/01/05 00:04:00;;;;;;;;;;;;;;;2.53;79.03;99994.44;5028775;28;19925;-76
2022/01/05 00:06:26;;;;;;;;;;;;;;;2.57;78.23;99975.31;5006822;28;19929;-78
2022/01/05 00:08:51;;;;;;;;;;;;;;;2.57;77.77;99972.72;5030391;28;19928;-78
2022/01/05 00:11:16;;;;;;;;;;;;;;;2.59;77.16;99970.94;5026397;28;19925;-76
2022/01/05 00:13:43;;;;;;;;;;;;;;;2.53;78.44;99971.13;5028280;28;20003;-79
2022/01/05 00:16:08;;;;;;;;;;;;;;;2.51;77.89;99965.13;5027420;28;19959;-77
2022/01/05 00:18:33;;;;;;;;;;;;;;;2.43;78.76;99975.69;5019712;28;20383;-77
2022/01/05 00:21:01;;;;;;;;;;;;;;;2.41;79.33;99968.84;5015158;28;19925;-75
2022/01/05 00:23:26;;;;;;;;;;;;;;;2.46;80.07;99982.53;5021798;28;20917;-73
2022/01/05 00:25:52;;;;;;;;;;;;;;;2.56;79.18;99977.94;5008421;28;19928;-74
2022/01/05 00:28:17;;;;;;;;;;;;;;;2.59;78.91;99978.72;5038359;28;19925;-74
2022/01/05 00:30:42;;;;;;;;;;;;;;;2.57;78.01;99972.72;5018387;28;20035;-76
2022/01/05 00:33:07;;;;;;;;;;;;;;;2.59;78.07;99977.88;5025914;28;20405;-75
2022/01/05 00:35:33;;;;;;;;;;;;;;;2.60;78.26;99972.63;5028074;28;19932;-76
2022/01/05 00:37:59;;;;;;;;;;;;;;;2.69;78.25;99981.91;5023640;28;19927;-74
2022/01/05 00:40:24;;;;;;;;;;;;;;;2.74;78.21;99982.59;5021406;28;20295;-75
2022/01/05 00:42:50;;;;;;;;;;;;;;;2.77;77.89;99976.47;5026352;28;19928;-80
2022/01/05 00:45:15;;;;;;;;;;;;;;;2.76;77.73;99977.38;5022799;28;20043;-77
2022/01/05 00:47:40;;;;;;;;;;;;;;;2.76;76.04;99964.41;5024505;28;20043;-75
2022/01/05 00:50:06;;;;;;;;;;;;;;;2.69;76.33;99961.16;5025645;28;19936;-78
2022/01/05 00:52:31;;;;;;;;;;;;;;;2.64;75.56;99960.44;5009408;28;20398;-80
2022/01/05 00:54:56;;;;;;;;;;;;;;;2.70;75.71;99955.03;5016966;28;19940;-77
2022/01/05 00:57:22;;;;;;;;;;;;;;;2.68;76.41;99963.78;5012217;28;19917;-78
2022/01/05 00:59:47;;;;;;;;;;;;;;;2.65;77.03;99967.31;5020669;28;20510;-78
2022/01/05 01:02:12;;;;;;;;;;;;;;;2.65;77.98;99972.50;5036906;28;19920;-78
2022/01/05 01:04:38;;;;;;;;;;;;;;;2.66;77.97;99970.75;5033579;28;20601;-76
2022/01/05 01:07:03;;;;;;;;;;;;;;;2.70;76.94;99974.97;5033835;28;20020;-78
2022/01/05 01:09:28;;;;;;;;;;;;;;;2.67;77.05;99972.44;5031698;28;19921;-75
2022/01/05 01:11:54;;;;;;;;;;;;;;;2.71;77.15;99974.06;5032191;28;19917;-76
2022/01/05 01:14:19;;;;;;;;;;;;;;;2.86;76.21;99967.59;5027451;28;19921;-77
2022/01/05 01:16:44;;;;;;;;;;;;;;;2.83;77.35;99973.72;5010233;28;20302;-75
2022/01/05 01:19:11;;;;;;;;;;;;;;;2.86;77.09;99970.19;5006161;28;19918;-75
2022/01/05 01:21:37;;;;;;;;;;;;;;;2.91;77.24;99971.75;5018007;28;19924;-77
2022/01/05 01:24:02;;;;;;;;;;;;;;;2.89;77.22;99976.13;5041032;28;19917;-78
2022/01/05 01:26:29;;;;;;;;;;;;;;;2.93;77.65;99974.28;5040360;28;19921;-77
2022/01/05 01:28:55;;;;;;;;;;;;;;;2.97;78.08;99972.47;5035926;28;20432;-79
2022/01/05 01:31:21;;;;;;;;;;;;;;;3.02;77.85;99978.38;5028878;28;20385;-79
2022/01/05 01:33:47;;;;;;;;;;;;;;;3.03;77.73;99982.66;5019377;28;20370;-77
2022/01/05 01:36:12;;;;;;;;;;;;;;;3.04;77.98;99980.00;5038512;28;19949;-76
2022/01/05 01:38:38;;;;;;;;;;;;;;;2.99;78.17;99975.84;5031282;28;19917;-75
2022/01/05 01:41:03;;;;;;;;;;;;;;;3.08;77.11;99975.59;5022177;28;20298;-77
2022/01/05 01:43:28;;;;;;;;;;;;;;;3.08;77.60;99967.81;5034626;28;19917;-76
2022/01/05 01:45:54;;;;;;;;;;;;;;;3.16;77.30;99972.75;5030074;28;19925;-77
2022/01/05 01:48:19;;;;;;;;;;;;;;;3.10;77.68;99966.00;5029617;28;19917;-77
2022/01/05 01:50:44;;;;;;;;;;;;;;;3.13;76.63;99963.31;5029266;28;19917;-77
2022/01/05 01:53:09;;;;;;;;;;;;;;;3.13;77.00;99967.69;5037927;28;20343;-75
2022/01/05 01:55:35;;;;;;;;;;;;;;;3.18;77.65;99977.03;5032832;28;19924;-76
2022/01/05 01:58:00;;;;;;;;;;;;;;;3.13;78.09;99978.06;5050017;28;19917;-76
2022/01/05 02:00:26;;;;;;;;;;;;;;;3.04;78.81;99985.19;5049310;28;20003;-75
2022/01/05 02:02:51;;;;;;;;;;;;;;;3.00;78.56;99980.16;5030965;28;19925;-75
2022/01/05 02:05:17;;;;;;;;;;;;;;;2.94;77.87;99979.44;5032141;28;20007;-76
2022/01/05 02:07:42;;;;;;;;;;;;;;;2.98;77.40;99974.19;5029471;28;20389;-75
2022/01/05 02:10:08;;;;;;;;;;;;;;;3.01;78.10;99984.44;5017438;28;19947;-75
2022/01/05 02:12:34;;;;;;;;;;;;;;;3.01;78.34;99985.31;5031129;28;20013;-74
2022/01/05 02:14:59;;;;;;;;;;;;;;;2.99;78.38;99981.03;5040290;28;20072;-77
2022/01/05 02:17:41;;;;;;;;;;;;;;;2.99;78.09;99981.03;5044479;28;20397;-77
2022/01/05 02:20:22;;;;;;;;;;;;;;;2.94;78.63;99984.63;5029243;28;20008;-78
2022/01/05 02:22:47;;;;;;;;;;;;;;;2.99;77.44;99975.84;5024234;28;19982;-77
2022/01/05 02:25:13;;;;;;;;;;;;;;;3.02;76.79;99973.19;5027430;28;20529;-77
2022/01/05 02:27:55;;;;;;;;;;;;;;;3.01;77.66;99981.84;5024606;28;19917;-76
2022/01/05 02:30:35;;;;;;;;;;;;;;;3.04;78.43;99981.78;5032214;28;20004;-75
2022/01/05 02:33:00;;;;;;;;;;;;;;;2.96;79.00;99984.59;5045311;28;20290;-72
2022/01/05 02:35:26;;;;;;;;;;;;;;;3.06;77.84;99985.19;5023920;28;19994;-74
2022/01/05 02:37:53;;;;;;;;;;;;;;;3.08;77.79;99973.00;5044816;28;19921;-73
2022/01/05 02:40:19;;;;;;;;;;;;;;;3.16;77.07;99977.94;5025004;28;19917;-74
2022/01/05 02:42:45;;;;;;;;;;;;;;;3.19;76.26;99964.88;5035222;28;20541;-73
2022/01/05 02:45:11;;;;;;;;;;;;;;;3.23;76.63;99969.94;5001819;28;20020;-74
2022/01/05 02:47:37;;;;;;;;;;;;;;;3.31;77.22;99971.47;5022043;28;19939;-74
2022/01/05 02:50:04;;;;;;;;;;;;;;;3.42;76.22;99974.53;5034885;28;20479;-74
2022/01/05 02:52:29;;;;;;;;;;;;;;;3.51;76.76;99961.31;5034032;28;19917;-74
2022/01/05 02:54:54;;;;;;;;;;;;;;;3.55;76.49;99969.84;5036083;28;20431;-79
2022/01/05 02:57:19;;;;;;;;;;;;;;;3.55;77.40;99983.66;5025063;28;19933;-76
2022/01/05 02:59:45;;;;;;;;;;;;;;;3.61;78.00;99985.22;5025016;28;19971;-77
2022/01/05 03:02:10;;;;;;;;;;;;;;;3.63;77.61;99982.59;5035200;28;19948;-77
2022/01/05 03:04:36;;;;;;;;;;;;;;;3.62;77.95;99989.50;5034599;28;19921;-76
2022/01/05 03:07:01;;;;;;;;;;;;;;;3.63;78.64;99992.97;5030729;28;20442;-75
2022/01/05 03:09:26;;;;;;;;;;;;;;;3.59;78.91;99997.38;5026412;28;20849;-77
2022/01/05 03:11:52;;;;;;;;;;;;;;;3.62;79.34;99991.28;5011045;28;20026;-76
2022/01/05 03:14:18;;;;;;;;;;;;;;;3.69;79.00;100008.34;5017751;28;21480;-76
2022/01/05 03:16:43;;;;;;;;;;;;;;;3.63;79.92;100003.38;5026076;28;19924;-75
2022/01/05 03:19:09;;;;;;;;;;;;;;;3.66;79.79;100009.31;5021242;28;19971;-76
2022/01/05 03:21:34;;;;;;;;;;;;;;;3.74;79.83;100011.66;5018773;28;19968;-76
2022/01/05 03:23:59;;;;;;;;;;;;;;;3.66;80.60;100011.03;5016543;28;19921;-75
2022/01/05 03:26:24;;;;;;;;;;;;;;;3.63;81.22;100005.97;5016692;28;19917;-76
2022/01/05 03:28:50;;;;;;;;;;;;;;;3.59;82.48;100012.97;5015473;28;19918;-77
2022/01/05 03:31:15;;;;;;;;;;;;;;;3.64;83.05;100023.25;5026608;28;19925;-75
2022/01/05 03:33:40;;;;;;;;;;;;;;;3.64;82.98;100015.47;4998617;28;20363;-74
2022/01/05 03:36:06;;;;;;;;;;;;;;;3.58;83.71;100015.63;5015665;28;19924;-74
2022/01/05 03:38:31;;;;;;;;;;;;;;;3.61;82.99;100011.19;5032107;28;20003;-76
2022/01/05 03:40:57;;;;;;;;;;;;;;;3.68;81.01;100011.84;5002973;28;19918;-77
2022/01/05 03:43:22;;;;;;;;;;;;;;;3.72;80.02;100000.47;5035963;28;19924;-75
2022/01/05 03:45:48;;;;;;;;;;;;;;;3.79;79.90;100003.72;5018781;28;19929;-77
2022/01/05 03:48:14;;;;;;;;;;;;;;;3.76;80.96;100016.81;5019440;28;19921;-78
2022/01/05 03:50:39;;;;;;;;;;;;;;;3.72;82.08;100016.06;5023767;28;19917;-76
2022/01/05 03:53:05;;;;;;;;;;;;;;;3.55;84.36;100034.75;5020267;28;20399;-77
2022/01/05 03:55:31;;;;;;;;;;;;;;;3.45;85.65;100049.75;5021043;28;20790;-75
2022/01/05 03:57:57;;;;;;;;;;;;;;;3.41;85.87;100050.78;5025583;28;19940;-77
2022/01/05 04:00:24;;;;;;;;;;;;;;;3.39;86.49;100042.16;5022841;28;19921;-76
2022/01/05 04:02:49;;;;;;;;;;;;;;;3.39;85.94;100037.81;5031542;28;19918;-74
2022/01/05 04:05:15;;;;;;;;;;;;;;;3.39;85.61;100042.16;5017181;28;19932;-76
2022/01/05 04:07:40;;;;;;;;;;;;;;;3.43;86.09;100029.94;5021515;28;20441;-76
2022/01/05 04:10:06;;;;;;;;;;;;;;;3.52;84.64;100016.66;5030189;28;19917;-76
2022/01/05 04:12:31;;;;;;;;;;;;;;;3.59;83.42;100009.53;5027044;28;19917;-75
2022/01/05 04:14:56;;;;;;;;;;;;;;;3.66;81.88;100009.31;5020160;28;20418;-75
2022/01/05 04:17:22;;;;;;;;;;;;;;;3.74;81.92;100016.00;5027565;28;20407;-75
2022/01/05 04:19:47;;;;;;;;;;;;;;;3.77;81.88;100008.94;5017868;28;19975;-76
2022/01/05 04:22:12;;;;;;;;;;;;;;;3.81;81.00;100018.34;5014031;28;19948;-75
2022/01/05 04:24:37;;;;;;;;;;;;;;;3.89;79.30;100007.72;5020392;28;20004;-75
2022/01/05 04:27:03;;;;;;;;;;;;;;;3.88;79.94;99998.22;5019211;28;19957;-76
2022/01/05 04:29:28;;;;;;;;;;;;;;;3.97;79.61;100002.28;5017158;28;20338;-75
2022/01/05 04:31:54;;;;;;;;;;;;;;;3.98;79.89;100001.34;5016406;28;19992;-75
2022/01/05 04:34:19;;;;;;;;;;;;;;;3.97;80.42;100013.50;5023295;28;20331;-76
2022/01/05 04:36:45;;;;;;;;;;;;;;;3.94;81.15;100028.34;5020416;28;19917;-75
2022/01/05 04:39:10;;;;;;;;;;;;;;;3.98;82.32;100033.41;5021356;28;20392;-74
2022/01/05 04:41:35;;;;;;;;;;;;;;;3.92;83.72;100043.97;5030410;28;19917;-76
2022/01/05 04:44:01;;;;;;;;;;;;;;;3.90;83.63;100038.00;5023749;28;20290;-74
2022/01/05 04:46:26;;;;;;;;;;;;;;;3.96;83.40;100044.75;4998042;28;19925;-76
2022/01/05 04:48:51;;;;;;;;;;;;;;;3.93;82.80;100031.84;5017275;28;20386;-75
2022/01/05 04:51:16;;;;;;;;;;;;;;;3.95;82.20;100036.09;5017026;28;19925;-75
2022/01/05 04:53:42;;;;;;;;;;;;;;;4.03;80.01;100015.88;5028042;28;20023;-75
2022/01/05 04:56:07;;;;;;;;;;;;;;;4.07;79.50;100010.59;5023595;28;19917;-73
2022/01/05 04:58:32;;;;;;;;;;;;;;;4.11;79.13;100012.22;5042711;28;19917;-76
2022/01/05 05:00:58;;;;;;;;;;;;;;;4.08;80.04;100013.13;5010800;28;19967;-77
2022/01/05 05:03:23;;;;;;;;;;;;;;;4.07;79.91;100021.00;5025663;28;19924;-78
2022/01/05 05:05:48;;;;;;;;;;;;;;;4.08;79.52;100020.94;5005941;28;19922;-77
2022/01/05 05:08:13;;;;;;;;;;;;;;;4.09;79.13;100022.63;4994300;28;19932;-78
2022/01/05 05:10:39;;;;;;;;;;;;;;;4.14;79.79;100014.69;5013628;28;20003;-75
2022/01/05 05:13:19;;;;;;;;;;;;;;;4.15;80.11;100021.59;5010258;28;20337;-77
2022/01/05 05:15:45;;;;;;;;;;;;;;;4.22;79.96;100019.63;5010501;28;20248;-75
2022/01/05 05:18:10;;;;;;;;;;;;;;;4.20;79.87;100024.03;5010629;28;19979;-78
2022/01/05 05:20:35;;;;;;;;;;;;;;;4.15;79.81;100030.25;5027871;28;19918;-78
2022/01/05 05:23:01;;;;;;;;;;;;;;;4.10;80.38;100026.94;5028041;28;19921;-76
2022/01/05 05:25:27;;;;;;;;;;;;;;;4.19;79.63;100018.00;5021455;28;19976;-77
2022/01/05 05:27:52;;;;;;;;;;;;;;;4.15;79.78;100024.19;5019089;28;19960;-75
2022/01/05 05:30:18;;;;;;;;;;;;;;;4.20;79.65;100018.81;5031986;28;19928;-74
2022/01/05 05:32:43;;;;;;;;;;;;;;;4.20;80.34;100018.81;5002650;28;19944;-74
2022/01/05 05:35:09;;;;;;;;;;;;;;;4.22;80.54;100014.44;5011051;28;19928;-75
2022/01/05 05:37:35;;;;;;;;;;;;;;;4.27;80.45;100018.56;5043815;28;19979;-79
2022/01/05 05:40:00;;;;;;;;;;;;;;;4.29;81.04;100014.19;5021323;28;19917;-74
2022/01/05 05:42:26;;;;;;;;;;;;;;;4.39;81.47;100030.31;5010467;28;19917;-75
2022/01/05 05:44:51;;;;;;;;;;;;;;;4.27;84.54;100051.53;5038132;28;19964;-76
2022/01/05 05:47:16;;;;;;;;;;;;;;;4.26;85.18;100062.84;5029067;28;19963;-77
2022/01/05 05:49:42;;;;;;;;;;;;;;;4.19;86.40;100064.78;5029088;28;19957;-76
2022/01/05 05:52:07;;;;;;;;;;;;;;;4.14;87.60;100085.75;5018180;28;20051;-74
2022/01/05 05:54:32;;;;;;;;;;;;;;;4.06;88.94;100092.94;5014752;28;20380;-74
2022/01/05 05:56:58;;;;;;;;;;;;;;;4.12;89.23;100095.34;5019420;28;20051;-75
2022/01/05 05:59:23;;;;;;;;;;;;;;;4.12;88.70;100095.34;5002884;28;20041;-75
2022/01/05 06:01:48;;;;;;;;;;;;;;;4.11;89.19;100083.22;5031160;28;20403;-74
2022/01/05 06:04:13;;;;;;;;;;;;;;;4.08;89.11;100087.69;5027890;28;20439;-75
2022/01/05 06:06:39;;;;;;;;;;;;;;;4.05;89.34;100083.44;5022891;28;20017;-74
2022/01/05 06:09:04;;;;;;;;;;;;;;;4.07;89.70;100081.66;5011816;28;20323;-75
2022/01/05 06:11:29;;;;;;;;;;;;;;;4.06;90.23;100079.94;5029389;28;19917;-75
2022/01/05 06:13:55;;;;;;;;;;;;;;;4.11;89.06;100072.84;5034924;28;19948;-75
2022/01/05 06:16:21;;;;;;;;;;;;;;;4.14;88.16;100082.28;5015492;28;19951;-77
2022/01/05 06:18:47;;;;;;;;;;;;;;;4.19;88.27;100072.59;5033913;28;19962;-76
2022/01/05 06:21:12;;;;;;;;;;;;;;;4.25;87.45;100074.13;5033312;28;19976;-77
2022/01/05 06:23:37;;;;;;;;;;;;;;;4.36;86.55;100072.03;5019598;28;20398;-76
2022/01/05 06:26:03;;;;;;;;;;;;;;;4.43;86.46;100060.50;5014858;28;19957;-75
2022/01/05 06:28:28;;;;;;;;;;;;;;;4.46;85.80;100064.78;5021926;28;19925;-75
2022/01/05 06:30:53;;;;;;;;;;;;;;;4.51;85.94;100062.03;5034820;28;20305;-77
2022/01/05 06:33:19;;;;;;;;;;;;;;;4.51;85.82;100064.63;5033799;28;19968;-77
2022/01/05 06:35:44;;;;;;;;;;;;;;;4.50;86.83;100079.34;5031232;28;20337;-76
2022/01/05 06:38:09;;;;;;;;;;;;;;;4.54;86.33;100080.09;5046000;28;19921;-75
2022/01/05 06:40:36;;;;;;;;;;;;;;;4.64;86.31;100073.69;5031920;28;20660;-75
2022/01/05 06:43:01;;;;;;;;;;;;;;;4.63;86.48;100080.66;5009049;28;19955;-75
2022/01/05 06:45:27;;;;;;;;;;;;;;;4.62;87.83;100081.53;5031066;28;19925;-76
2022/01/05 06:47:52;;;;;;;;;;;;;;;4.61;87.49;100092.84;5014091;28;19957;-76
2022/01/05 06:50:18;;;;;;;;;;;;;;;4.63;87.96;100096.25;5028645;28;20425;-77
2022/01/05 06:52:44;;;;;;;;;;;;;;;4.59;88.49;100099.03;5033347;28;19974;-75
2022/01/05 06:55:10;;;;;;;;;;;;;;;4.52;89.55;100111.38;5024466;28;20563;-76
2022/01/05 07:00:17;;;;;;;;;;;;;;;4.43;90.97;100135.09;5035368;28;19927;-76
2022/01/05 07:02:42;;;;;;;;;;;;;;;4.34;91.60;100149.25;5028287;28;19921;-74
2022/01/05 07:05:07;;;;;;;;;;;;;;;4.36;90.79;100139.66;5029310;28;19968;-78
2022/01/05 07:07:33;;;;;;;;;;;;;;;4.25;92.94;100155.56;5034205;28;20388;-75
2022/01/05 07:09:58;;;;;;;;;;;;;;;4.17;93.59;100170.56;5036070;28;19979;-76
2022/01/05 07:12:24;;;;;;;;;;;;;;;4.03;94.34;100155.41;5017163;28;19917;-77
2022/01/05 07:14:49;;;;;;;;;;;;;;;3.97;95.81;100168.59;5014355;28;19932;-76
2022/01/05 07:17:14;;;;;;;;;;;;;;;3.94;95.91;100164.34;5021391;28;20382;-78
2022/01/05 07:19:40;;;;;;;;;;;;;;;3.99;95.57;100153.78;5030848;28;19980;-79
2022/01/05 07:22:05;;;;;;;;;;;;;;;4.00;95.81;100168.50;5013693;28;20290;-77
2022/01/05 07:24:30;;;;;;;;;;;;;;;3.97;96.18;100168.59;5012155;28;19929;-78
2022/01/05 07:26:56;;;;;;;;;;;;;;;4.00;95.90;100165.91;5011254;28;19918;-79
2022/01/05 07:29:21;;;;;;;;;;;;;;;4.02;96.03;100153.72;5031658;28;19928;-79
2022/01/05 07:31:47;;;;;;;;;;;;;;;4.01;94.21;100160.66;5032556;28;19923;-75
2022/01/05 07:34:12;;;;;;;;;;;;;;;4.10;93.50;100154.31;5031180;28;19945;-77
2022/01/05 07:36:38;;;;;;;;;;;;;;;4.17;92.66;100163.66;5037330;28;19943;-77
2022/01/05 07:39:05;;;;;;;;;;;;;;;4.18;93.80;100154.09;5033863;28;19917;-76
2022/01/05 07:41:31;;;;;;;;;;;;;;;4.18;93.80;100173.16;5002653;28;20379;-77
2022/01/05 07:43:56;;;;;;;;;;;;;;;4.32;93.71;100153.63;5019868;28;19926;-76
2022/01/05 07:46:21;;;;;;;;;;;;;;;4.43;91.39;100154.13;5018034;28;19925;-77
2022/01/05 07:48:46;;;;;;;;;;;;;;;4.42;91.78;100160.25;5013852;28;19969;-77
2022/01/05 07:51:12;;;;;;;;;;;;;;;4.42;92.05;100168.03;4993114;28;20600;-77
2022/01/05 07:53:37;;;;;;;;;;;;;;;4.58;90.82;100155.38;5013887;28;19921;-75
2022/01/05 07:56:03;;;;;;;;;;;;;;;4.57;91.23;100166.72;5015229;28;19917;-75
2022/01/05 07:58:28;;;;;;;;;;;;;;;4.59;90.56;100156.25;5043174;28;19918;-78
2022/01/05 08:00:53;;;;;;;;;;;;;;;4.66;90.61;100165.53;5034981;28;19971;-74
2022/01/05 08:03:19;;;;;;;;;;;;;;;4.65;90.90;100166.44;5026013;28;20286;-73
2022/01/05 08:05:44;;;;;;;;;;;;;;;4.69;91.04;100173.25;5026623;28;19932;-77
2022/01/05 08:08:09;;;;;;;;;;;;;;;4.63;92.36;100189.09;5027959;28;20370;-73
2022/01/05 08:10:35;;;;;;;;;;;;;;;4.66;92.92;100191.56;5027883;28;19921;-73
2022/01/05 08:13:00;;;;;;;;;;;;;;;4.66;92.78;100196.75;5023264;28;19921;-73
2022/01/05 08:15:25;;;;;;;;;;;;;;;4.60;94.02;100199.59;5023445;28;19960;-72
2022/01/05 08:17:50;;;;;;;;;;;;;;;4.54;94.43;100194.56;5019231;28;20377;-73
2022/01/05 08:20:16;;;;;;;;;;;;;;;4.55;95.46;100217.06;4999035;28;19925;-72
2022/01/05 08:22:42;;;;;;;;;;;;;;;4.56;95.08;100221.38;5014068;28;19952;-73
2022/01/05 08:25:09;;;;;;;;;;;;;;;4.54;95.15;100225.78;5013661;28;19965;-73
2022/01/05 08:27:34;;;;;;;;;;;;;;;4.54;95.58;100243.97;5021548;28;19929;-73
2022/01/05 08:30:04;;;;;;;;;;;;;;;4.56;95.63;100234.38;5022926;28;19997;-72
2022/01/05 08:32:29;;;;;;;;;;;;;;;4.54;96.33;100252.66;5020401;28;19927;-73
2022/01/05 08:34:54;;;;;;;;;;;;;;;4.60;96.20;100244.66;5011048;28;20294;-73
2022/01/05 08:37:20;;;;;;;;;;;;;;;4.57;96.73;100239.56;5018392;28;20426;-73
2022/01/05 08:39:49;;;;;;;;;;;;;;;4.63;94.99;100223.75;5020441;28;19928;-72
2022/01/05 08:42:15;;;;;;;;;;;;;;;4.66;94.57;100224.56;5020506;28;19918;-74
2022/01/05 08:44:40;;;;;;;;;;;;;;;4.75;93.54;100230.28;5022831;28;19952;-73
2022/01/05 08:47:07;;;;;;;;;;;;;;;4.83;93.04;100222.22;5019160;28;20059;-73
2022/01/05 08:49:32;;;;;;;;;;;;;;;4.83;92.92;100237.84;5028762;28;20857;-72
2022/01/05 08:51:58;;;;;;;;;;;;;;;4.93;91.46;100228.00;5017824;28;19954;-73
2022/01/05 08:54:23;;;;;;;;;;;;;;;5.04;90.67;100222.41;5013361;28;19925;-74
2022/01/05 08:56:49;;;;;;;;;;;;;;;5.07;91.38;100210.13;5022297;28;19982;-73
2022/01/05 08:59:15;;;;;;;;;;;;;;;5.09;90.41;100216.16;5015311;28;19929;-74
2022/01/05 09:01:42;;;;;;;;;;;;;;;5.13;89.62;100229.91;5010716;28;19917;-73
2022/01/05 09:04:08;;;;;;;;;;;;;;;5.17;89.51;100230.69;5016442;28;19948;-73
2022/01/05 09:06:33;;;;;;;;;;;;;;;5.24;89.11;100242.56;5025124;28;20405;-73
2022/01/05 09:08:58;;;;;;;;;;;;;;;5.26;89.48;100236.41;5023749;28;20002;-73
2022/01/05 09:11:24;;;;;;;;;;;;;;;5.19;90.42;100247.06;5008125;28;19924;-74
2022/01/05 09:13:50;;;;;;;;;;;;;;;5.25;89.94;100246.88;5019296;28;19925;-76
2022/01/05 09:16:15;;;;;;;;;;;;;;;5.20;90.38;100251.38;5014049;28;19962;-76
2022/01/05 09:18:40;;;;;;;;;;;;;;;5.13;90.53;100268.97;5022340;28;19918;-75
2022/01/05 09:21:06;;;;;;;;;;;;;;;5.09;90.94;100273.44;5000233;28;19956;-73
2022/01/05 09:23:31;;;;;;;;;;;;;;;5.05;91.84;100284.88;5022235;28;20005;-74
2022/01/05 09:25:56;;;;;;;;;;;;;;;5.00;91.37;100281.56;5023620;28;20439;-75
2022/01/05 09:28:22;;;;;;;;;;;;;;;5.05;92.28;100287.47;5022833;28;19929;-73
2022/01/05 09:30:47;;;;;;;;;;;;;;;5.11;91.13;100263.00;5014415;28;20440;-73
2022/01/05 09:33:14;;;;;;;;;;;;;;;5.14;91.07;100295.88;5023435;28;19992;-75
2022/01/05 09:35:39;;;;;;;;;;;;;;;5.24;90.39;100289.47;5024022;28;19951;-73
2022/01/05 09:43:10;;;;;;;;;;;;;;;5.28;90.75;100309.31;5020495;28;19968;-72
2022/01/05 09:45:36;;;;;;;;;;;;;;;5.29;90.68;100307.53;5019427;28;20022;-73
2022/01/05 09:48:17;;;;;;;;;;;;;;;5.34;90.36;100314.28;5018540;28;19918;-73
2022/01/05 09:50:45;;;;;;;;;;;;;;;5.35;90.65;100317.72;5018045;28;19948;-74
2022/01/05 09:53:11;;;;;;;;;;;;;;;5.41;90.23;100318.38;5018571;28;19971;-74
2022/01/05 09:55:37;;;;;;;;;;;;;;;5.46;91.28;100335.63;5024409;28;20309;-73
2022/01/05 09:58:03;;;;;;;;;;;;;;;5.48;89.96;100344.25;4985056;28;19933;-72
2022/01/05 10:00:28;;;;;;;;;;;;;;;5.51;91.11;100351.97;5004634;28;19929;-72
2022/01/05 10:02:53;;;;;;;;;;;;;;;5.56;90.59;100348.31;5001878;28;20020;-73
2022/01/05 10:05:19;;;;;;;;;;;;;;;5.62;91.86;100342.03;5002709;28;20016;-73
2022/01/05 10:07:44;;;;;;;;;;;;;;;5.71;91.74;100353.88;5005345;28;19944;-73
2022/01/05 10:10:10;;;;;;;;;;;;;;;5.61;92.52;100370.72;5003345;28;20294;-72
2022/01/05 10:12:35;;;;;;;;;;;;;;;5.53;93.44;100381.41;5006364;28;19956;-72
2022/01/05 10:15:01;;;;;;;;;;;;;;;5.42;94.98;100390.44;5002177;28;19929;-73
2022/01/05 10:17:28;;;;;;;;;;;;;;;5.31;95.81;100400.34;5007756;28;20450;-73
2022/01/05 10:19:55;;;;;;;;;;;;;;;5.45;95.98;100375.59;5004741;28;19951;-72
2022/01/05 10:22:35;;;;;;;;;;;;;;;5.58;94.89;100390.78;5022784;28;19918;-73
2022/01/05 10:25:02;;;;;;;;;;;;;;;5.54;93.59;100396.13;5007455;28;19948;-74
2022/01/05 10:27:28;;;;;;;;;;;;;;;5.64;91.92;100376.69;5018576;28;20404;-73
2022/01/05 10:29:55;;;;;;;;;;;;;;;5.66;92.04;100393.13;5019491;28;19951;-75
2022/01/05 10:32:21;;;;;;;;;;;;;;;5.63;92.24;100413.22;5019755;28;19925;-74
2022/01/05 10:35:01;;;;;;;;;;;;;;;5.53;92.87;100405.72;5029917;28;20401;-73
2022/01/05 10:37:27;;;;;;;;;;;;;;;5.57;93.00;100428.16;5020140;28;20052;-73
2022/01/05 10:40:08;;;;;;;;;;;;;;;5.51;94.07;100417.09;5023771;28;19922;-73
2022/01/05 10:42:33;;;;;;;;;;;;;;;5.41;94.49;100433.00;5016273;28;20019;-74
2022/01/05 10:44:59;;;;;;;;;;;;;;;5.41;94.98;100440.81;5020085;28;20397;-74
2022/01/05 10:47:25;;;;;;;;;;;;;;;5.42;95.63;100445.13;5018300;28;19952;-73
2022/01/05 10:49:50;;;;;;;;;;;;;;;5.36;95.93;100444.47;5015887;28;19983;-72
2022/01/05 10:52:31;;;;;;;;;;;;;;;5.36;95.80;100460.97;5016499;28;20633;-74
2022/01/05 10:55:07;;;;;;;;;;;;;;;5.40;96.13;100464.31;5007598;28;19983;-74
2022/01/05 10:57:32;;;;;;;;;;;;;;;5.45;95.02;100464.19;5018455;28;19952;-73
2022/01/05 10:59:58;;;;;;;;;;;;;;;5.50;93.86;100462.28;5026123;28;19961;-72
2022/01/05 11:02:38;;;;;;;;;;;;;;;5.51;93.00;100457.03;5019519;28;19988;-73
2022/01/05 11:05:19;;;;;;;;;;;;;;;5.56;92.68;100462.09;5023920;28;19960;-73
2022/01/05 11:07:47;;;;;;;;;;;;;;;5.69;91.94;100468.63;5012142;28;20019;-73
2022/01/05 11:10:27;;;;;;;;;;;;;;;5.66;92.63;100473.91;5016493;28;19917;-73
2022/01/05 11:12:53;;;;;;;;;;;;;;;5.66;93.77;100471.31;5022283;28;19929;-73
2022/01/05 11:15:34;;;;;;;;;;;;;;;5.85;92.68;100463.75;5007291;28;19929;-74
2022/01/05 11:18:14;;;;;;;;;;;;;;;5.94;90.77;100472.16;5021442;28;20461;-73
2022/01/05 11:20:55;;;;;;;;;;;;;;;6.03;91.54;100477.09;5019945;28;19917;-74
2022/01/05 11:23:22;;;;;;;;;;;;;;;6.02;89.94;100460.59;5019234;28;19951;-74
2022/01/05 11:25:48;;;;;;;;;;;;;;;6.08;88.59;100446.50;5024659;28;19928;-74
2022/01/05 11:28:14;;;;;;;;;;;;;;;6.21;88.56;100457.34;5017889;28;19925;-72
2022/01/05 11:30:40;;;;;;;;;;;;;;;6.37;88.67;100472.47;5034769;28;19979;-74
2022/01/05 11:33:06;;;;;;;;;;;;;;;6.36;88.19;100469.00;5022847;28;20011;-73
2022/01/05 11:35:32;;;;;;;;;;;;;;;6.33;88.68;100475.19;5015271;28;19924;-73
2022/01/05 11:37:57;;;;;;;;;;;;;;;6.55;89.39;100479.66;5019586;28;19924;-73
2022/01/05 11:40:23;;;;;;;;;;;;;;;6.64;88.31;100487.13;5004442;28;20371;-75
2022/01/05 11:42:50;;;;;;;;;;;;;;;6.61;88.24;100486.41;5018501;28;20382;-73
2022/01/05 11:45:31;;;;;;;;;;;;;;;6.48;89.76;100499.06;5018775;28;20466;-73
2022/01/05 11:48:13;;;;;;;;;;;;;;;6.59;89.18;100504.75;5023183;28;20261;-75
2022/01/05 11:50:54;;;;;;;;;;;;;;;6.56;88.88;100497.00;5034355;28;20339;-74
2022/01/05 11:53:35;;;;;;;;;;;;;;;6.45;88.37;100505.22;5019505;28;19928;-74
2022/01/05 11:56:01;;;;;;;;;;;;;;;6.41;88.79;100514.06;5004051;28;19925;-76
2022/01/05 11:58:28;;;;;;;;;;;;;;;6.31;90.13;100521.34;5018293;28;19921;-74
2022/01/05 12:01:09;;;;;;;;;;;;;;;6.29;89.95;100525.75;5025049;28;19945;-76
2022/01/05 12:03:49;;;;;;;;;;;;;;;6.22;89.21;100520.84;5017320;28;19980;-75
2022/01/05 12:06:15;;;;;;;;;;;;;;;6.10;89.75;100522.06;5015683;28;19921;-75
2022/01/05 12:08:56;;;;;;;;;;;;;;;6.16;89.70;100521.88;4999416;28;19925;-74
2022/01/05 12:14:17;;;;;;;;;;;;;;;6.29;91.75;100545.78;5025034;28;19936;-75
2022/01/05 12:16:58;;;;;;;;;;;;;;;6.32;93.66;100549.16;5017373;28;19921;-76
2022/01/05 12:19:24;;;;;;;;;;;;;;;6.19;94.31;100560.88;5000254;28;20725;-75
2022/01/05 12:21:50;;;;;;;;;;;;;;;6.21;92.75;100559.09;5018202;28;19925;-75
2022/01/05 12:24:16;;;;;;;;;;;;;;;6.25;92.17;100552.00;5024788;28;20033;-74
2022/01/05 12:26:43;;;;;;;;;;;;;;;6.34;92.22;100549.09;5024886;28;19929;-73
2022/01/05 12:29:09;;;;;;;;;;;;;;;6.48;90.90;100551.25;5016315;28;20142;-73
2022/01/05 12:31:49;;;;;;;;;;;;;;;6.63;89.81;100548.09;5029564;28;19927;-73
2022/01/05 12:34:34;;;;;;;;;;;;;;;6.69;88.76;100554.84;5018003;28;20592;-74
2022/01/05 12:37:00;;;;;;;;;;;;;;;6.65;88.69;100551.50;5020924;28;20589;-74
2022/01/05 12:39:45;;;;;;;;;;;;;;;6.64;89.35;100555.00;5032399;28;20036;-74
2022/01/05 12:42:26;;;;;;;;;;;;;;;6.50;90.97;100575.53;5036845;28;20385;-74
2022/01/05 12:44:51;;;;;;;;;;;;;;;6.39;91.84;100590.72;5023328;28;20290;-75
2022/01/05 12:47:33;;;;;;;;;;;;;;;6.31;93.07;100602.22;5017177;28;19936;-74
2022/01/05 12:50:15;;;;;;;;;;;;;;;6.33;93.87;100604.81;5010640;28;20465;-74
2022/01/05 12:52:41;;;;;;;;;;;;;;;6.32;92.46;100598.72;5020887;28;19991;-75
2022/01/05 12:55:07;;;;;;;;;;;;;;;6.34;91.18;100609.97;5021354;28;19947;-75
2022/01/05 12:57:32;;;;;;;;;;;;;;;6.27;91.16;100613.69;5022708;28;20038;-75
2022/01/05 12:59:59;;;;;;;;;;;;;;;6.26;90.51;100606.75;5026077;28;20101;-76